sensor_id;sensor_type;location;lat;lon;timestamp;P1;P2;P0
71858;PMS5003;59713;50.866;4.324;2023-07-31T00:00:45;4;4;
71858;PMS5003;59713;50.866;4.324;2023-07-31T00:01:45;4;4;
71858;PMS5003;59713;50.866;4.324;2023-07-31T00:01:45;4;4;
71858;PMS5003;59713;50.866;4.324;2023-07-31T00:02:45;4;4;
71858;PMS5003;59713;50.866;4.324;2023-07-31T00:03:45;4;4;
71858;PMS5003;59713;50.866;4.324;2023-07-31T00:04:45;4;4;
71858;PMS5003;59713;50.866;4.324;2023-07-31T00:05:45;4;4;
71858;PMS5003;59713;50.866;4.324;2023-07-31T00:06:45;6;3;
71858;PMS5003;59713;50.866;4.324;2023-07-31T00:07:45;6;3;
71858;PMS5003;59713;50.866;4.324;2023-07-31T00:08:45;6;3;
71858;PMS5003;59713;50.866;4.324;2023-07-31T00:09:45;5;5;
71858;PMS5003;59713;50.866;4.324;2023-07-31T00:10:45;5;5;
71858;PMS5003;59713;50.866;4.324;2023-07-31T00:10:45;5;5;
71858;PMS5003;59713;50.866;4.324;2023-07-31T00:11:45;5;5;
71858;PMS5003;59713;50.866;4.324;2023-07-31T00:12:45;9;6;
71858;PMS5003;59713;50.866;4.324;2023-07-31T00:13:45;9;6;
71858;PMS5003;59713;50.866;4.324;2023-07-31T00:14:45;9;6;
71858;PMS5003;59713;50.866;4.324;2023-07-31T00:15:45;5;4;
71858;PMS5003;59713;50.866;4.324;2023-07-31T00:16:45;5;4;
71858;PMS5003;59713;50.866;4.324;2023-07-31T00:17:45;5;4;
71858;PMS5003;59713;50.866;4.324;2023-07-31T00:18:45;10;4;
71858;PMS5003;59713;50.866;4.324;2023-07-31T00:19:45;10;4;
71858;PMS5003;59713;50.866;4.324;2023-07-31T00:19:45;10;4;
71858;PMS5003;59713;50.866;4.324;2023-07-31T00:20:45;10;4;
71858;PMS5003;59713;50.866;4.324;2023-07-31T00:21:45;5;4;
71858;PMS5003;59713;50.866;4.324;2023-07-31T00:22:45;5;4;
71858;PMS5003;59713;50.866;4.324;2023-07-31T00:23:45;5;4;
71858;PMS5003;59713;50.866;4.324;2023-07-31T00:24:45;5;3;
71858;PMS5003;59713;50.866;4.324;2023-07-31T00:25:45;5;3;
71858;PMS5003;59713;50.866;4.324;2023-07-31T00:26:45;5;3;
71858;PMS5003;59713;50.866;4.324;2023-07-31T00:27:45;5;4;
71858;PMS5003;59713;50.866;4.324;2023-07-31T00:28:45;5;4;
71858;PMS5003;59713;50.866;4.324;2023-07-31T00:29:45;5;4;
71858;PMS5003;59713;50.866;4.324;2023-07-31T00:29:45;5;4;
71858;PMS5003;59713;50.866;4.324;2023-07-31T00:30:45;5;4;
71858;PMS5003;59713;50.866;4.324;2023-07-31T00:31:45;5;4;
71858;PMS5003;59713;50.866;4.324;2023-07-31T00:32:45;5;4;
71858;PMS5003;59713;50.866;4.324;2023-07-31T00:33:45;9;4;
71858;PMS5003;59713;50.866;4.324;2023-07-31T00:34:45;9;4;
71858;PMS5003;59713;50.866;4.324;2023-07-31T00:35:45;9;4;
71858;PMS5003;59713;50.866;4.324;2023-07-31T00:36:45;4;3;
71858;PMS5003;59713;50.866;4.324;2023-07-31T00:37:45;4;3;
71858;PMS5003;59713;50.866;4.324;2023-07-31T00:38:45;4;3;
71858;PMS5003;59713;50.866;4.324;2023-07-31T00:39:45;11;5;
71858;PMS5003;59713;50.866;4.324;2023-07-31T00:40:45;11;5;
71858;PMS5003;59713;50.866;4.324;2023-07-31T00:41:45;11;5;
71858;PMS5003;59713;50.866;4.324;2023-07-31T00:42:45;5;5;
71858;PMS5003;59713;50.866;4.324;2023-07-31T00:43:45;5;5;
71858;PMS5003;59713;50.866;4.324;2023-07-31T00:44:45;5;5;
71858;PMS5003;59713;50.866;4.324;2023-07-31T00:45:45;4;3;
71858;PMS5003;59713;50.866;4.324;2023-07-31T00:46:45;4;3;
71858;PMS5003;59713;50.866;4.324;2023-07-31T00:47:45;4;3;
71858;PMS5003;59713;50.866;4.324;2023-07-31T00:48:45;5;3;
71858;PMS5003;59713;50.866;4.324;2023-07-31T00:48:45;5;3;
71858;PMS5003;59713;50.866;4.324;2023-07-31T00:49:47;5;3;
71858;PMS5003;59713;50.866;4.324;2023-07-31T00:50:45;5;3;
71858;PMS5003;59713;50.866;4.324;2023-07-31T00:51:45;9;5;
71858;PMS5003;59713;50.866;4.324;2023-07-31T00:52:45;9;5;
71858;PMS5003;59713;50.866;4.324;2023-07-31T00:53:45;9;5;
71858;PMS5003;59713;50.866;4.324;2023-07-31T00:54:45;6;5;
71858;PMS5003;59713;50.866;4.324;2023-07-31T00:55:45;6;5;
71858;PMS5003;59713;50.866;4.324;2023-07-31T00:56:45;6;5;
71858;PMS5003;59713;50.866;4.324;2023-07-31T00:57:45;7;5;
71858;PMS5003;59713;50.866;4.324;2023-07-31T00:57:45;7;5;
71858;PMS5003;59713;50.866;4.324;2023-07-31T00:58:45;7;5;
71858;PMS5003;59713;50.866;4.324;2023-07-31T00:59:45;7;5;
71858;PMS5003;59713;50.866;4.324;2023-07-31T01:00:45;5;5;
71858;PMS5003;59713;50.866;4.324;2023-07-31T01:01:45;5;5;
71858;PMS5003;59713;50.866;4.324;2023-07-31T01:02:45;5;5;
71858;PMS5003;59713;50.866;4.324;2023-07-31T01:03:45;6;5;
71858;PMS5003;59713;50.866;4.324;2023-07-31T01:04:45;6;5;
71858;PMS5003;59713;50.866;4.324;2023-07-31T01:05:47;6;5;
71858;PMS5003;59713;50.866;4.324;2023-07-31T01:06:47;8;5;
71858;PMS5003;59713;50.866;4.324;2023-07-31T01:07:48;8;5;
71858;PMS5003;59713;50.866;4.324;2023-07-31T01:07:48;8;5;
71858;PMS5003;59713;50.866;4.324;2023-07-31T01:08:48;8;5;
71858;PMS5003;59713;50.866;4.324;2023-07-31T01:09:47;8;5;
71858;PMS5003;59713;50.866;4.324;2023-07-31T01:10:46;8;5;
71858;PMS5003;59713;50.866;4.324;2023-07-31T01:11:46;8;5;
71858;PMS5003;59713;50.866;4.324;2023-07-31T01:12:46;4;4;
71858;PMS5003;59713;50.866;4.324;2023-07-31T01:13:45;4;4;
71858;PMS5003;59713;50.866;4.324;2023-07-31T01:15:01;4;4;
71858;PMS5003;59713;50.866;4.324;2023-07-31T01:15:45;6;4;
71858;PMS5003;59713;50.866;4.324;2023-07-31T01:16:45;6;4;
71858;PMS5003;59713;50.866;4.324;2023-07-31T01:16:45;6;4;
71858;PMS5003;59713;50.866;4.324;2023-07-31T01:17:45;6;4;
71858;PMS5003;59713;50.866;4.324;2023-07-31T01:18:45;5;4;
71858;PMS5003;59713;50.866;4.324;2023-07-31T01:19:45;5;4;
71858;PMS5003;59713;50.866;4.324;2023-07-31T01:20:46;5;4;
71858;PMS5003;59713;50.866;4.324;2023-07-31T01:21:54;7;6;
71858;PMS5003;59713;50.866;4.324;2023-07-31T01:22:49;7;6;
71858;PMS5003;59713;50.866;4.324;2023-07-31T01:23:51;7;6;
71858;PMS5003;59713;50.866;4.324;2023-07-31T01:24:49;6;4;
71858;PMS5003;59713;50.866;4.324;2023-07-31T01:25:50;6;4;
71858;PMS5003;59713;50.866;4.324;2023-07-31T01:26:00;6;4;
71858;PMS5003;59713;50.866;4.324;2023-07-31T01:26:47;6;4;
71858;PMS5003;59713;50.866;4.324;2023-07-31T01:27:47;8;4;
71858;PMS5003;59713;50.866;4.324;2023-07-31T01:28:47;8;4;
71858;PMS5003;59713;50.866;4.324;2023-07-31T01:29:46;8;4;
71858;PMS5003;59713;50.866;4.324;2023-07-31T01:30:47;7;5;
71858;PMS5003;59713;50.866;4.324;2023-07-31T01:31:46;7;5;
71858;PMS5003;59713;50.866;4.324;2023-07-31T01:32:46;7;5;
71858;PMS5003;59713;50.866;4.324;2023-07-31T01:33:45;4;4;
71858;PMS5003;59713;50.866;4.324;2023-07-31T01:34:45;4;4;
71858;PMS5003;59713;50.866;4.324;2023-07-31T01:35:45;4;4;
71858;PMS5003;59713;50.866;4.324;2023-07-31T01:35:45;4;4;
71858;PMS5003;59713;50.866;4.324;2023-07-31T01:36:45;7;4;
71858;PMS5003;59713;50.866;4.324;2023-07-31T01:37:45;7;4;
71858;PMS5003;59713;50.866;4.324;2023-07-31T01:38:45;7;4;
71858;PMS5003;59713;50.866;4.324;2023-07-31T01:39:45;4;4;
71858;PMS5003;59713;50.866;4.324;2023-07-31T01:40:45;4;4;
71858;PMS5003;59713;50.866;4.324;2023-07-31T01:41:45;4;4;
71858;PMS5003;59713;50.866;4.324;2023-07-31T01:42:45;4;4;
71858;PMS5003;59713;50.866;4.324;2023-07-31T01:43:45;4;4;
71858;PMS5003;59713;50.866;4.324;2023-07-31T01:44:45;4;4;
71858;PMS5003;59713;50.866;4.324;2023-07-31T01:45:45;5;5;
71858;PMS5003;59713;50.866;4.324;2023-07-31T01:45:45;5;5;
71858;PMS5003;59713;50.866;4.324;2023-07-31T01:46:45;5;5;
71858;PMS5003;59713;50.866;4.324;2023-07-31T01:47:45;5;5;
71858;PMS5003;59713;50.866;4.324;2023-07-31T01:48:45;5;5;
71858;PMS5003;59713;50.866;4.324;2023-07-31T01:49:45;5;5;
71858;PMS5003;59713;50.866;4.324;2023-07-31T01:50:45;5;5;
71858;PMS5003;59713;50.866;4.324;2023-07-31T01:51:45;9;4;
71858;PMS5003;59713;50.866;4.324;2023-07-31T01:52:45;9;4;
71858;PMS5003;59713;50.866;4.324;2023-07-31T01:53:45;9;4;
71858;PMS5003;59713;50.866;4.324;2023-07-31T01:54:45;6;6;
71858;PMS5003;59713;50.866;4.324;2023-07-31T01:54:45;6;6;
71858;PMS5003;59713;50.866;4.324;2023-07-31T01:55:45;6;6;
71858;PMS5003;59713;50.866;4.324;2023-07-31T01:56:45;6;6;
71858;PMS5003;59713;50.866;4.324;2023-07-31T01:57:45;9;5;
71858;PMS5003;59713;50.866;4.324;2023-07-31T01:58:45;9;5;
71858;PMS5003;59713;50.866;4.324;2023-07-31T01:59:45;9;5;
71858;PMS5003;59713;50.866;4.324;2023-07-31T02:00:45;5;5;
71858;PMS5003;59713;50.866;4.324;2023-07-31T02:01:45;5;5;
71858;PMS5003;59713;50.866;4.324;2023-07-31T02:02:45;5;5;
71858;PMS5003;59713;50.866;4.324;2023-07-31T02:03:45;12;7;
71858;PMS5003;59713;50.866;4.324;2023-07-31T02:03:45;12;7;
71858;PMS5003;59713;50.866;4.324;2023-07-31T02:04:45;12;7;
71858;PMS5003;59713;50.866;4.324;2023-07-31T02:05:46;12;7;
71858;PMS5003;59713;50.866;4.324;2023-07-31T02:06:45;8;5;
71858;PMS5003;59713;50.866;4.324;2023-07-31T02:07:45;8;5;
71858;PMS5003;59713;50.866;4.324;2023-07-31T02:08:45;8;5;
71858;PMS5003;59713;50.866;4.324;2023-07-31T02:09:45;5;5;
71858;PMS5003;59713;50.866;4.324;2023-07-31T02:10:45;5;5;
71858;PMS5003;59713;50.866;4.324;2023-07-31T02:11:45;5;5;
71858;PMS5003;59713;50.866;4.324;2023-07-31T02:12:45;6;5;
71858;PMS5003;59713;50.866;4.324;2023-07-31T02:12:45;6;5;
71858;PMS5003;59713;50.866;4.324;2023-07-31T02:13:46;6;5;
71858;PMS5003;59713;50.866;4.324;2023-07-31T02:14:45;6;5;
71858;PMS5003;59713;50.866;4.324;2023-07-31T02:15:45;9;6;
71858;PMS5003;59713;50.866;4.324;2023-07-31T02:16:45;9;6;
71858;PMS5003;59713;50.866;4.324;2023-07-31T02:17:45;9;6;
71858;PMS5003;59713;50.866;4.324;2023-07-31T02:18:45;8;5;
71858;PMS5003;59713;50.866;4.324;2023-07-31T02:19:45;8;5;
71858;PMS5003;59713;50.866;4.324;2023-07-31T02:20:48;8;5;
71858;PMS5003;59713;50.866;4.324;2023-07-31T02:21:45;6;3;
71858;PMS5003;59713;50.866;4.324;2023-07-31T02:21:45;6;3;
71858;PMS5003;59713;50.866;4.324;2023-07-31T02:22:45;6;3;
71858;PMS5003;59713;50.866;4.324;2023-07-31T02:23:46;6;3;
71858;PMS5003;59713;50.866;4.324;2023-07-31T02:24:46;5;5;
71858;PMS5003;59713;50.866;4.324;2023-07-31T02:25:46;5;5;
71858;PMS5003;59713;50.866;4.324;2023-07-31T02:26:45;5;5;
71858;PMS5003;59713;50.866;4.324;2023-07-31T02:27:45;7;5;
71858;PMS5003;59713;50.866;4.324;2023-07-31T02:28:46;7;5;
71858;PMS5003;59713;50.866;4.324;2023-07-31T02:29:45;7;5;
71858;PMS5003;59713;50.866;4.324;2023-07-31T02:30:45;11;6;
71858;PMS5003;59713;50.866;4.324;2023-07-31T02:30:45;11;6;
71858;PMS5003;59713;50.866;4.324;2023-07-31T02:31:45;11;6;
71858;PMS5003;59713;50.866;4.324;2023-07-31T02:32:45;11;6;
71858;PMS5003;59713;50.866;4.324;2023-07-31T02:33:45;7;5;
71858;PMS5003;59713;50.866;4.324;2023-07-31T02:34:47;7;5;
71858;PMS5003;59713;50.866;4.324;2023-07-31T02:35:46;7;5;
71858;PMS5003;59713;50.866;4.324;2023-07-31T02:36:45;6;6;
71858;PMS5003;59713;50.866;4.324;2023-07-31T02:37:45;6;6;
71858;PMS5003;59713;50.866;4.324;2023-07-31T02:38:45;6;6;
71858;PMS5003;59713;50.866;4.324;2023-07-31T02:39:45;5;5;
71858;PMS5003;59713;50.866;4.324;2023-07-31T02:40:45;5;5;
71858;PMS5003;59713;50.866;4.324;2023-07-31T02:40:45;5;5;
71858;PMS5003;59713;50.866;4.324;2023-07-31T02:41:46;5;5;
71858;PMS5003;59713;50.866;4.324;2023-07-31T02:42:45;7;7;
71858;PMS5003;59713;50.866;4.324;2023-07-31T02:43:45;7;7;
71858;PMS5003;59713;50.866;4.324;2023-07-31T02:44:46;7;7;
71858;PMS5003;59713;50.866;4.324;2023-07-31T02:45:45;6;5;
71858;PMS5003;59713;50.866;4.324;2023-07-31T02:46:45;6;5;
71858;PMS5003;59713;50.866;4.324;2023-07-31T02:47:45;6;5;
71858;PMS5003;59713;50.866;4.324;2023-07-31T02:48:45;4;4;
71858;PMS5003;59713;50.866;4.324;2023-07-31T02:49:46;4;4;
71858;PMS5003;59713;50.866;4.324;2023-07-31T02:49:46;4;4;
71858;PMS5003;59713;50.866;4.324;2023-07-31T02:50:46;4;4;
71858;PMS5003;59713;50.866;4.324;2023-07-31T02:51:45;4;4;
71858;PMS5003;59713;50.866;4.324;2023-07-31T02:52:45;4;4;
71858;PMS5003;59713;50.866;4.324;2023-07-31T02:53:45;4;4;
71858;PMS5003;59713;50.866;4.324;2023-07-31T02:54:46;8;6;
71858;PMS5003;59713;50.866;4.324;2023-07-31T02:55:45;8;6;
71858;PMS5003;59713;50.866;4.324;2023-07-31T02:56:46;8;6;
71858;PMS5003;59713;50.866;4.324;2023-07-31T02:57:45;4;4;
71858;PMS5003;59713;50.866;4.324;2023-07-31T02:58:45;4;4;
71858;PMS5003;59713;50.866;4.324;2023-07-31T02:58:46;4;4;
71858;PMS5003;59713;50.866;4.324;2023-07-31T02:59:45;4;4;
71858;PMS5003;59713;50.866;4.324;2023-07-31T03:00:46;7;5;
71858;PMS5003;59713;50.866;4.324;2023-07-31T03:01:45;7;5;
71858;PMS5003;59713;50.866;4.324;2023-07-31T03:02:45;7;5;
71858;PMS5003;59713;50.866;4.324;2023-07-31T03:03:46;5;4;
71858;PMS5003;59713;50.866;4.324;2023-07-31T03:04:45;5;4;
71858;PMS5003;59713;50.866;4.324;2023-07-31T03:05:45;5;4;
71858;PMS5003;59713;50.866;4.324;2023-07-31T03:06:46;6;5;
71858;PMS5003;59713;50.866;4.324;2023-07-31T03:07:46;6;5;
71858;PMS5003;59713;50.866;4.324;2023-07-31T03:07:46;6;5;
71858;PMS5003;59713;50.866;4.324;2023-07-31T03:08:46;6;5;
71858;PMS5003;59713;50.866;4.324;2023-07-31T03:09:45;6;6;
71858;PMS5003;59713;50.866;4.324;2023-07-31T03:10:46;6;6;
71858;PMS5003;59713;50.866;4.324;2023-07-31T03:11:45;6;6;
71858;PMS5003;59713;50.866;4.324;2023-07-31T03:12:46;4;4;
71858;PMS5003;59713;50.866;4.324;2023-07-31T03:13:46;4;4;
71858;PMS5003;59713;50.866;4.324;2023-07-31T03:14:46;4;4;
71858;PMS5003;59713;50.866;4.324;2023-07-31T03:15:46;6;5;
71858;PMS5003;59713;50.866;4.324;2023-07-31T03:16:46;6;5;
71858;PMS5003;59713;50.866;4.324;2023-07-31T03:17:46;6;5;
71858;PMS5003;59713;50.866;4.324;2023-07-31T03:18:46;4;4;
71858;PMS5003;59713;50.866;4.324;2023-07-31T03:19:46;4;4;
71858;PMS5003;59713;50.866;4.324;2023-07-31T03:20:46;4;4;
71858;PMS5003;59713;50.866;4.324;2023-07-31T03:21:46;5;5;
71858;PMS5003;59713;50.866;4.324;2023-07-31T03:22:46;5;5;
71858;PMS5003;59713;50.866;4.324;2023-07-31T03:23:46;5;5;
71858;PMS5003;59713;50.866;4.324;2023-07-31T03:24:46;3;3;
71858;PMS5003;59713;50.866;4.324;2023-07-31T03:25:59;3;3;
71858;PMS5003;59713;50.866;4.324;2023-07-31T03:26:46;3;3;
71858;PMS5003;59713;50.866;4.324;2023-07-31T03:26:46;3;3;
71858;PMS5003;59713;50.866;4.324;2023-07-31T03:27:46;9;6;
71858;PMS5003;59713;50.866;4.324;2023-07-31T03:28:46;9;6;
71858;PMS5003;59713;50.866;4.324;2023-07-31T03:29:46;9;6;
71858;PMS5003;59713;50.866;4.324;2023-07-31T03:30:46;4;4;
71858;PMS5003;59713;50.866;4.324;2023-07-31T03:31:46;4;4;
71858;PMS5003;59713;50.866;4.324;2023-07-31T03:32:46;4;4;
71858;PMS5003;59713;50.866;4.324;2023-07-31T03:33:46;6;4;
71858;PMS5003;59713;50.866;4.324;2023-07-31T03:34:46;6;4;
71858;PMS5003;59713;50.866;4.324;2023-07-31T03:35:46;6;4;
71858;PMS5003;59713;50.866;4.324;2023-07-31T03:35:46;6;4;
71858;PMS5003;59713;50.866;4.324;2023-07-31T03:36:46;6;5;
71858;PMS5003;59713;50.866;4.324;2023-07-31T03:37:46;6;5;
71858;PMS5003;59713;50.866;4.324;2023-07-31T03:38:46;6;5;
71858;PMS5003;59713;50.866;4.324;2023-07-31T03:39:46;4;4;
71858;PMS5003;59713;50.866;4.324;2023-07-31T03:40:46;4;4;
71858;PMS5003;59713;50.866;4.324;2023-07-31T03:41:46;4;4;
71858;PMS5003;59713;50.866;4.324;2023-07-31T03:42:46;2;2;
71858;PMS5003;59713;50.866;4.324;2023-07-31T03:43:46;2;2;
71858;PMS5003;59713;50.866;4.324;2023-07-31T03:44:46;2;2;
71858;PMS5003;59713;50.866;4.324;2023-07-31T03:44:46;2;2;
71858;PMS5003;59713;50.866;4.324;2023-07-31T03:45:46;6;6;
71858;PMS5003;59713;50.866;4.324;2023-07-31T03:46:46;6;6;
71858;PMS5003;59713;50.866;4.324;2023-07-31T03:47:46;6;6;
71858;PMS5003;59713;50.866;4.324;2023-07-31T03:48:46;3;2;
71858;PMS5003;59713;50.866;4.324;2023-07-31T03:49:46;3;2;
71858;PMS5003;59713;50.866;4.324;2023-07-31T03:50:46;3;2;
71858;PMS5003;59713;50.866;4.324;2023-07-31T03:51:46;7;5;
71858;PMS5003;59713;50.866;4.324;2023-07-31T03:52:46;7;5;
71858;PMS5003;59713;50.866;4.324;2023-07-31T03:53:46;7;5;
71858;PMS5003;59713;50.866;4.324;2023-07-31T03:53:46;7;5;
71858;PMS5003;59713;50.866;4.324;2023-07-31T03:54:46;3;3;
71858;PMS5003;59713;50.866;4.324;2023-07-31T03:55:46;3;3;
71858;PMS5003;59713;50.866;4.324;2023-07-31T03:56:46;3;3;
71858;PMS5003;59713;50.866;4.324;2023-07-31T03:57:46;4;4;
71858;PMS5003;59713;50.866;4.324;2023-07-31T03:58:46;4;4;
71858;PMS5003;59713;50.866;4.324;2023-07-31T03:59:46;4;4;
71858;PMS5003;59713;50.866;4.324;2023-07-31T04:00:46;5;4;
71858;PMS5003;59713;50.866;4.324;2023-07-31T04:01:46;5;4;
71858;PMS5003;59713;50.866;4.324;2023-07-31T04:02:46;5;4;
71858;PMS5003;59713;50.866;4.324;2023-07-31T04:02:46;5;4;
71858;PMS5003;59713;50.866;4.324;2023-07-31T04:03:46;3;3;
71858;PMS5003;59713;50.866;4.324;2023-07-31T04:04:46;3;3;
71858;PMS5003;59713;50.866;4.324;2023-07-31T04:05:46;3;3;
71858;PMS5003;59713;50.866;4.324;2023-07-31T04:06:46;3;3;
71858;PMS5003;59713;50.866;4.324;2023-07-31T04:07:46;3;3;
71858;PMS5003;59713;50.866;4.324;2023-07-31T04:08:46;3;3;
71858;PMS5003;59713;50.866;4.324;2023-07-31T04:09:46;4;4;
71858;PMS5003;59713;50.866;4.324;2023-07-31T04:10:46;4;4;
71858;PMS5003;59713;50.866;4.324;2023-07-31T04:11:46;4;4;
71858;PMS5003;59713;50.866;4.324;2023-07-31T04:11:46;4;4;
71858;PMS5003;59713;50.866;4.324;2023-07-31T04:12:46;5;5;
71858;PMS5003;59713;50.866;4.324;2023-07-31T04:13:46;5;5;
71858;PMS5003;59713;50.866;4.324;2023-07-31T04:14:46;5;5;
71858;PMS5003;59713;50.866;4.324;2023-07-31T04:15:47;7;5;
71858;PMS5003;59713;50.866;4.324;2023-07-31T04:16:46;7;5;
71858;PMS5003;59713;50.866;4.324;2023-07-31T04:17:46;7;5;
71858;PMS5003;59713;50.866;4.324;2023-07-31T04:18:46;7;5;
71858;PMS5003;59713;50.866;4.324;2023-07-31T04:19:46;7;5;
71858;PMS5003;59713;50.866;4.324;2023-07-31T04:20:46;7;5;
71858;PMS5003;59713;50.866;4.324;2023-07-31T04:20:46;7;5;
71858;PMS5003;59713;50.866;4.324;2023-07-31T04:21:46;6;4;
71858;PMS5003;59713;50.866;4.324;2023-07-31T04:22:46;6;4;
71858;PMS5003;59713;50.866;4.324;2023-07-31T04:23:46;6;4;
71858;PMS5003;59713;50.866;4.324;2023-07-31T04:24:46;4;4;
71858;PMS5003;59713;50.866;4.324;2023-07-31T04:25:46;4;4;
71858;PMS5003;59713;50.866;4.324;2023-07-31T04:26:46;4;4;
71858;PMS5003;59713;50.866;4.324;2023-07-31T04:27:46;5;5;
71858;PMS5003;59713;50.866;4.324;2023-07-31T04:28:46;5;5;
71858;PMS5003;59713;50.866;4.324;2023-07-31T04:29:46;5;5;
71858;PMS5003;59713;50.866;4.324;2023-07-31T04:29:46;5;5;
71858;PMS5003;59713;50.866;4.324;2023-07-31T04:30:46;4;3;
71858;PMS5003;59713;50.866;4.324;2023-07-31T04:31:47;4;3;
71858;PMS5003;59713;50.866;4.324;2023-07-31T04:32:46;4;3;
71858;PMS5003;59713;50.866;4.324;2023-07-31T04:33:46;5;5;
71858;PMS5003;59713;50.866;4.324;2023-07-31T04:34:46;5;5;
71858;PMS5003;59713;50.866;4.324;2023-07-31T04:35:48;5;5;
71858;PMS5003;59713;50.866;4.324;2023-07-31T04:36:46;6;4;
71858;PMS5003;59713;50.866;4.324;2023-07-31T04:37:46;6;4;
71858;PMS5003;59713;50.866;4.324;2023-07-31T04:38:46;6;4;
71858;PMS5003;59713;50.866;4.324;2023-07-31T04:38:46;6;4;
71858;PMS5003;59713;50.866;4.324;2023-07-31T04:39:46;5;5;
71858;PMS5003;59713;50.866;4.324;2023-07-31T04:40:46;5;5;
71858;PMS5003;59713;50.866;4.324;2023-07-31T04:41:46;5;5;
71858;PMS5003;59713;50.866;4.324;2023-07-31T04:42:46;7;4;
71858;PMS5003;59713;50.866;4.324;2023-07-31T04:43:46;7;4;
71858;PMS5003;59713;50.866;4.324;2023-07-31T04:44:46;7;4;
71858;PMS5003;59713;50.866;4.324;2023-07-31T04:45:46;3;3;
71858;PMS5003;59713;50.866;4.324;2023-07-31T04:46:46;3;3;
71858;PMS5003;59713;50.866;4.324;2023-07-31T04:47:46;3;3;
71858;PMS5003;59713;50.866;4.324;2023-07-31T04:47:46;3;3;
71858;PMS5003;59713;50.866;4.324;2023-07-31T04:48:46;6;6;
71858;PMS5003;59713;50.866;4.324;2023-07-31T04:49:46;6;6;
71858;PMS5003;59713;50.866;4.324;2023-07-31T04:50:46;6;6;
71858;PMS5003;59713;50.866;4.324;2023-07-31T04:51:46;8;7;
71858;PMS5003;59713;50.866;4.324;2023-07-31T04:52:46;8;7;
71858;PMS5003;59713;50.866;4.324;2023-07-31T04:53:46;8;7;
71858;PMS5003;59713;50.866;4.324;2023-07-31T04:54:46;7;5;
71858;PMS5003;59713;50.866;4.324;2023-07-31T04:55:46;7;5;
71858;PMS5003;59713;50.866;4.324;2023-07-31T04:56:46;7;5;
71858;PMS5003;59713;50.866;4.324;2023-07-31T04:56:46;7;5;
71858;PMS5003;59713;50.866;4.324;2023-07-31T04:57:46;4;3;
71858;PMS5003;59713;50.866;4.324;2023-07-31T04:58:46;4;3;
71858;PMS5003;59713;50.866;4.324;2023-07-31T04:59:46;4;3;
71858;PMS5003;59713;50.866;4.324;2023-07-31T05:00:46;4;4;
71858;PMS5003;59713;50.866;4.324;2023-07-31T05:01:46;4;4;
71858;PMS5003;59713;50.866;4.324;2023-07-31T05:02:46;4;4;
71858;PMS5003;59713;50.866;4.324;2023-07-31T05:03:46;4;4;
71858;PMS5003;59713;50.866;4.324;2023-07-31T05:04:46;4;4;
71858;PMS5003;59713;50.866;4.324;2023-07-31T05:05:47;4;4;
71858;PMS5003;59713;50.866;4.324;2023-07-31T05:06:46;5;5;
71858;PMS5003;59713;50.866;4.324;2023-07-31T05:06:46;5;5;
71858;PMS5003;59713;50.866;4.324;2023-07-31T05:07:46;5;5;
71858;PMS5003;59713;50.866;4.324;2023-07-31T05:08:46;5;5;
71858;PMS5003;59713;50.866;4.324;2023-07-31T05:09:46;3;3;
71858;PMS5003;59713;50.866;4.324;2023-07-31T05:10:46;3;3;
71858;PMS5003;59713;50.866;4.324;2023-07-31T05:11:46;3;3;
71858;PMS5003;59713;50.866;4.324;2023-07-31T05:12:46;7;4;
71858;PMS5003;59713;50.866;4.324;2023-07-31T05:13:46;7;4;
71858;PMS5003;59713;50.866;4.324;2023-07-31T05:14:46;7;4;
71858;PMS5003;59713;50.866;4.324;2023-07-31T05:15:46;2;2;
71858;PMS5003;59713;50.866;4.324;2023-07-31T05:15:46;2;2;
71858;PMS5003;59713;50.866;4.324;2023-07-31T05:16:46;2;2;
71858;PMS5003;59713;50.866;4.324;2023-07-31T05:17:46;2;2;
71858;PMS5003;59713;50.866;4.324;2023-07-31T05:18:46;3;3;
71858;PMS5003;59713;50.866;4.324;2023-07-31T05:19:46;3;3;
71858;PMS5003;59713;50.866;4.324;2023-07-31T05:20:46;3;3;
71858;PMS5003;59713;50.866;4.324;2023-07-31T05:21:46;6;5;
71858;PMS5003;59713;50.866;4.324;2023-07-31T05:22:46;6;5;
71858;PMS5003;59713;50.866;4.324;2023-07-31T05:23:46;6;5;
71858;PMS5003;59713;50.866;4.324;2023-07-31T05:24:46;7;5;
71858;PMS5003;59713;50.866;4.324;2023-07-31T05:25:46;7;5;
71858;PMS5003;59713;50.866;4.324;2023-07-31T05:25:46;7;5;
71858;PMS5003;59713;50.866;4.324;2023-07-31T05:26:46;7;5;
71858;PMS5003;59713;50.866;4.324;2023-07-31T05:27:46;5;5;
71858;PMS5003;59713;50.866;4.324;2023-07-31T05:28:46;5;5;
71858;PMS5003;59713;50.866;4.324;2023-07-31T05:29:46;5;5;
71858;PMS5003;59713;50.866;4.324;2023-07-31T05:30:46;6;4;
71858;PMS5003;59713;50.866;4.324;2023-07-31T05:31:46;6;4;
71858;PMS5003;59713;50.866;4.324;2023-07-31T05:32:46;6;4;
71858;PMS5003;59713;50.866;4.324;2023-07-31T05:33:46;7;5;
71858;PMS5003;59713;50.866;4.324;2023-07-31T05:34:46;7;5;
71858;PMS5003;59713;50.866;4.324;2023-07-31T05:34:46;7;5;
71858;PMS5003;59713;50.866;4.324;2023-07-31T05:35:46;7;5;
71858;PMS5003;59713;50.866;4.324;2023-07-31T05:36:46;3;3;
71858;PMS5003;59713;50.866;4.324;2023-07-31T05:37:46;3;3;
71858;PMS5003;59713;50.866;4.324;2023-07-31T05:38:46;3;3;
71858;PMS5003;59713;50.866;4.324;2023-07-31T05:39:46;4;3;
71858;PMS5003;59713;50.866;4.324;2023-07-31T05:40:46;4;3;
71858;PMS5003;59713;50.866;4.324;2023-07-31T05:41:46;4;3;
71858;PMS5003;59713;50.866;4.324;2023-07-31T05:42:46;4;4;
71858;PMS5003;59713;50.866;4.324;2023-07-31T05:43:46;4;4;
71858;PMS5003;59713;50.866;4.324;2023-07-31T05:43:46;4;4;
71858;PMS5003;59713;50.866;4.324;2023-07-31T05:44:46;4;4;
71858;PMS5003;59713;50.866;4.324;2023-07-31T05:45:46;3;3;
71858;PMS5003;59713;50.866;4.324;2023-07-31T05:46:46;3;3;
71858;PMS5003;59713;50.866;4.324;2023-07-31T05:47:46;3;3;
71858;PMS5003;59713;50.866;4.324;2023-07-31T05:48:46;6;5;
71858;PMS5003;59713;50.866;4.324;2023-07-31T05:49:46;6;5;
71858;PMS5003;59713;50.866;4.324;2023-07-31T05:50:46;6;5;
71858;PMS5003;59713;50.866;4.324;2023-07-31T05:51:46;5;4;
71858;PMS5003;59713;50.866;4.324;2023-07-31T05:52:46;5;4;
71858;PMS5003;59713;50.866;4.324;2023-07-31T05:52:46;5;4;
71858;PMS5003;59713;50.866;4.324;2023-07-31T05:53:46;5;4;
71858;PMS5003;59713;50.866;4.324;2023-07-31T05:54:46;3;3;
71858;PMS5003;59713;50.866;4.324;2023-07-31T05:55:46;3;3;
71858;PMS5003;59713;50.866;4.324;2023-07-31T05:56:46;3;3;
71858;PMS5003;59713;50.866;4.324;2023-07-31T05:57:46;7;4;
71858;PMS5003;59713;50.866;4.324;2023-07-31T05:58:46;7;4;
71858;PMS5003;59713;50.866;4.324;2023-07-31T05:59:46;7;4;
71858;PMS5003;59713;50.866;4.324;2023-07-31T06:00:46;6;5;
71858;PMS5003;59713;50.866;4.324;2023-07-31T06:01:46;6;5;
71858;PMS5003;59713;50.866;4.324;2023-07-31T06:01:46;6;5;
71858;PMS5003;59713;50.866;4.324;2023-07-31T06:02:46;6;5;
71858;PMS5003;59713;50.866;4.324;2023-07-31T06:03:46;12;5;
71858;PMS5003;59713;50.866;4.324;2023-07-31T06:04:46;12;5;
71858;PMS5003;59713;50.866;4.324;2023-07-31T06:05:46;12;5;
71858;PMS5003;59713;50.866;4.324;2023-07-31T06:06:46;4;4;
71858;PMS5003;59713;50.866;4.324;2023-07-31T06:07:46;4;4;
71858;PMS5003;59713;50.866;4.324;2023-07-31T06:08:46;4;4;
71858;PMS5003;59713;50.866;4.324;2023-07-31T06:09:46;8;5;
71858;PMS5003;59713;50.866;4.324;2023-07-31T06:10:46;8;5;
71858;PMS5003;59713;50.866;4.324;2023-07-31T06:10:46;8;5;
71858;PMS5003;59713;50.866;4.324;2023-07-31T06:11:46;8;5;
71858;PMS5003;59713;50.866;4.324;2023-07-31T06:12:46;5;5;